Time;durP1;ratioP1;P1;durP2;ratioP2;P2;SDS_P1;SDS_P2;PMS_P1;PMS_P2;Temp;Humidity;BMP_temperature;BMP_pressure;BME280_temperature;BME280_humidity;BME280_pressure;Samples;Min_cycle;Max_cycle;Signal;HPM_P1;HPM_P2
2022/09/18 00:01:12;;;;;;;4.38;0.88;;;;;;;;;;5076450;28;20051;-86
2022/09/18 00:03:40;;;;;;;7.18;1.08;;;;;;;;;;5076734;28;20056;-88
2022/09/18 00:06:09;;;;;;;6.95;1.02;;;;;;;;;;5094655;28;20040;-87
2022/09/18 00:08:37;;;;;;;5.43;0.80;;;;;;;;;;5075811;28;20052;-88
2022/09/18 00:11:08;;;;;;;6.45;1.25;;;;;;;;;;5094351;28;20067;-87
2022/09/18 00:13:36;;;;;;;7.20;0.75;;;;;;;;;;5077698;28;20059;-88
2022/09/18 00:16:03;;;;;;;3.85;0.90;;;;;;;;;;5094749;28;20044;-88
2022/09/18 00:18:30;;;;;;;9.07;1.48;;;;;;;;;;5094178;28;20051;-87
2022/09/18 00:21:08;;;;;;;4.93;1.02;;;;;;;;;;5094370;28;20047;-87
2022/09/18 00:23:35;;;;;;;6.80;1.35;;;;;;;;;;5076474;28;20055;-87
2022/09/18 00:26:03;;;;;;;9.65;0.93;;;;;;;;;;5093778;28;20488;-88
2022/09/18 00:28:30;;;;;;;7.35;1.02;;;;;;;;;;5076091;28;20052;-87
2022/09/18 00:31:08;;;;;;;7.38;1.30;;;;;;;;;;5094014;28;20047;-87
2022/09/18 00:33:36;;;;;;;7.45;0.80;;;;;;;;;;5094108;28;20044;-88
2022/09/18 00:36:04;;;;;;;5.03;1.08;;;;;;;;;;5075942;28;20048;-88
2022/09/18 00:38:31;;;;;;;6.07;1.02;;;;;;;;;;5094037;28;20048;-88
2022/09/18 00:40:59;;;;;;;6.80;1.13;;;;;;;;;;5094330;28;20048;-89
2022/09/18 00:43:28;;;;;;;3.92;0.90;;;;;;;;;;5076026;28;20392;-86
2022/09/18 00:46:03;;;;;;;6.28;0.80;;;;;;;;;;5093813;28;20049;-87
2022/09/18 00:48:45;;;;;;;6.00;1.15;;;;;;;;;;5075924;28;20126;-88
2022/09/18 00:51:13;;;;;;;4.80;0.93;;;;;;;;;;5093800;28;20047;-88
2022/09/18 00:53:44;;;;;;;4.72;0.93;;;;;;;;;;5076060;28;20455;-86
2022/09/18 00:56:12;;;;;;;9.80;1.05;;;;;;;;;;5075705;28;20510;-87
2022/09/18 00:58:39;;;;;;;7.78;0.98;;;;;;;;;;5093639;28;20059;-89
2022/09/18 01:01:07;;;;;;;6.82;1.20;;;;;;;;;;5075788;28;20052;-87
2022/09/18 01:03:35;;;;;;;3.22;0.95;;;;;;;;;;5075864;28;20071;-87
2022/09/18 01:06:05;;;;;;;4.13;0.95;;;;;;;;;;5075810;28;20384;-88
2022/09/18 01:08:34;;;;;;;9.60;1.15;;;;;;;;;;5093276;28;20048;-86
2022/09/18 01:11:13;;;;;;;6.13;1.00;;;;;;;;;;5093224;28;20101;-87
2022/09/18 01:13:59;;;;;;;6.63;0.93;;;;;;;;;;5075737;28;20067;-87
2022/09/18 01:16:42;;;;;;;5.88;1.35;;;;;;;;;;5075644;28;20044;-87
2022/09/18 01:19:19;;;;;;;8.18;1.33;;;;;;;;;;5076854;28;20059;-87
2022/09/18 01:22:05;;;;;;;4.35;0.93;;;;;;;;;;5080000;28;20056;-87
2022/09/18 01:24:32;;;;;;;9.00;1.55;;;;;;;;;;5078707;28;20048;-87
2022/09/18 01:27:02;;;;;;;4.53;0.65;;;;;;;;;;5097600;28;20044;-87
2022/09/18 01:29:34;;;;;;;6.00;1.23;;;;;;;;;;5079899;28;20443;-88
2022/09/18 01:32:15;;;;;;;4.78;0.85;;;;;;;;;;5080090;28;20139;-88
2022/09/18 01:34:46;;;;;;;4.15;0.80;;;;;;;;;;5079747;28;20048;-87
2022/09/18 01:37:20;;;;;;;3.28;0.68;;;;;;;;;;5079646;28;20044;-88
2022/09/18 01:40:02;;;;;;;5.40;0.88;;;;;;;;;;5079656;28;20140;-88
2022/09/18 01:42:30;;;;;;;4.47;0.60;;;;;;;;;;5079802;28;20454;-87
2022/09/18 01:44:59;;;;;;;2.65;0.80;;;;;;;;;;5097064;28;20040;-88
2022/09/18 01:47:28;;;;;;;1.90;0.50;;;;;;;;;;5079649;28;20134;-88
2022/09/18 01:49:58;;;;;;;5.97;1.20;;;;;;;;;;5097223;28;20444;-87
2022/09/18 01:52:28;;;;;;;4.95;1.20;;;;;;;;;;5097216;28;20487;-88
2022/09/18 01:54:57;;;;;;;9.90;1.13;;;;;;;;;;5096664;28;20064;-88
2022/09/18 01:57:29;;;;;;;4.68;0.73;;;;;;;;;;5079155;28;20518;-88
2022/09/18 01:59:59;;;;;;;8.18;1.50;;;;;;;;;;5096832;28;20059;-88
2022/09/18 02:02:29;;;;;;;7.97;0.90;;;;;;;;;;5096851;28;20048;-87
2022/09/18 02:04:58;;;;;;;7.22;1.65;;;;;;;;;;5078909;28;20090;-88
2022/09/18 02:07:44;;;;;;;4.32;1.65;;;;;;;;;;5078929;28;20055;-88
2022/09/18 02:10:11;;;;;;;7.90;1.52;;;;;;;;;;5096722;28;20056;-87
2022/09/18 02:12:39;;;;;;;5.72;0.80;;;;;;;;;;5079019;28;20048;-88
2022/09/18 02:15:12;;;;;;;6.47;0.98;;;;;;;;;;5078896;28;20051;-87
2022/09/18 02:17:42;;;;;;;14.65;1.52;;;;;;;;;;5078997;28;20048;-87
2022/09/18 02:20:12;;;;;;;4.03;1.40;;;;;;;;;;5096535;28;20044;-88
2022/09/18 02:22:41;;;;;;;6.93;0.68;;;;;;;;;;5078783;28;20044;-88
2022/09/18 02:25:09;;;;;;;12.30;1.50;;;;;;;;;;5096521;28;20491;-88
2022/09/18 02:27:38;;;;;;;4.50;1.00;;;;;;;;;;5078755;28;20051;-88
2022/09/18 02:30:06;;;;;;;6.78;1.05;;;;;;;;;;5078277;28;20047;-87
2022/09/18 02:32:35;;;;;;;3.45;0.90;;;;;;;;;;5078029;28;20054;-87
2022/09/18 02:35:03;;;;;;;5.43;0.80;;;;;;;;;;5096494;28;20056;-87
2022/09/18 02:37:39;;;;;;;7.47;0.90;;;;;;;;;;5096200;28;20483;-86
2022/09/18 02:40:14;;;;;;;4.43;1.40;;;;;;;;;;5095986;28;20055;-88
2022/09/18 02:42:56;;;;;;;4.57;0.95;;;;;;;;;;5096273;28;20044;-88
2022/09/18 02:45:42;;;;;;;7.68;0.90;;;;;;;;;;5078205;28;20055;-87
2022/09/18 02:48:18;;;;;;;4.70;0.88;;;;;;;;;;5078139;28;20303;-88
2022/09/18 02:50:54;;;;;;;7.07;0.80;;;;;;;;;;5095990;28;20058;-87
2022/09/18 02:53:21;;;;;;;3.95;0.70;;;;;;;;;;5078047;28;20044;-87
2022/09/18 02:55:50;;;;;;;5.38;0.88;;;;;;;;;;5078125;28;20047;-88
2022/09/18 02:58:24;;;;;;;5.90;1.23;;;;;;;;;;5077921;28;20052;-87
2022/09/18 03:00:55;;;;;;;6.13;1.25;;;;;;;;;;5095741;28;20052;-86
2022/09/18 03:03:26;;;;;;;6.18;1.02;;;;;;;;;;5095715;28;20070;-88
2022/09/18 03:05:53;;;;;;;6.90;0.82;;;;;;;;;;5077762;28;20048;-87
2022/09/18 03:08:20;;;;;;;6.47;0.90;;;;;;;;;;5095721;28;20054;-87
2022/09/18 03:10:47;;;;;;;4.45;1.00;;;;;;;;;;5095864;28;20480;-87
2022/09/18 03:13:14;;;;;;;3.05;0.73;;;;;;;;;;5077844;28;20044;-88
2022/09/18 03:15:42;;;;;;;6.63;0.90;;;;;;;;;;5077716;28;20054;-88
2022/09/18 03:18:09;;;;;;;7.75;1.50;;;;;;;;;;5095278;28;20040;-87
2022/09/18 03:20:36;;;;;;;7.47;1.50;;;;;;;;;;5095333;28;20507;-88
2022/09/18 03:23:03;;;;;;;6.88;0.90;;;;;;;;;;5095063;28;20082;-88
2022/09/18 03:25:30;;;;;;;7.80;1.45;;;;;;;;;;5077837;28;20044;-88
2022/09/18 03:27:57;;;;;;;5.93;1.20;;;;;;;;;;5077445;28;20411;-86
2022/09/18 03:30:24;;;;;;;6.82;1.20;;;;;;;;;;5095235;28;20052;-88
2022/09/18 03:32:52;;;;;;;1.83;0.70;;;;;;;;;;5077376;28;20052;-88
2022/09/18 03:35:19;;;;;;;5.47;1.00;;;;;;;;;;5077160;28;20060;-87
2022/09/18 03:37:47;;;;;;;9.00;1.30;;;;;;;;;;5077271;28;20453;-88
2022/09/18 03:40:15;;;;;;;6.18;1.40;;;;;;;;;;5094863;28;20051;-88
2022/09/18 03:42:46;;;;;;;7.53;1.27;;;;;;;;;;5077152;28;20093;-87
2022/09/18 03:45:13;;;;;;;4.78;1.27;;;;;;;;;;5076968;28;20044;-87
2022/09/18 03:47:40;;;;;;;4.82;1.17;;;;;;;;;;5077172;28;20051;-88
2022/09/18 03:50:07;;;;;;;2.75;0.98;;;;;;;;;;5094876;28;20052;-87
2022/09/18 03:52:35;;;;;;;7.55;1.02;;;;;;;;;;5077307;28;20464;-87
2022/09/18 03:55:02;;;;;;;5.75;2.75;;;;;;;;;;5077168;28;20051;-88
2022/09/18 03:57:29;;;;;;;6.22;2.33;;;;;;;;;;5094805;28;20492;-89
2022/09/18 03:59:57;;;;;;;6.55;1.20;;;;;;;;;;5094560;28;20052;-86
2022/09/18 04:02:24;;;;;;;6.50;1.30;;;;;;;;;;5094847;28;20127;-88
2022/09/18 04:04:52;;;;;;;5.88;1.52;;;;;;;;;;5094557;28;20400;-87
2022/09/18 04:07:20;;;;;;;5.60;2.85;;;;;;;;;;5094562;28;20055;-88
2022/09/18 04:09:47;;;;;;;9.25;1.60;;;;;;;;;;5094685;28;20048;-87
2022/09/18 04:12:14;;;;;;;4.47;1.20;;;;;;;;;;5076845;28;20048;-88
2022/09/18 04:14:41;;;;;;;4.90;1.25;;;;;;;;;;5094417;28;20399;-88
2022/09/18 04:17:08;;;;;;;5.22;1.35;;;;;;;;;;5094164;28;20138;-88
2022/09/18 04:19:35;;;;;;;3.10;1.15;;;;;;;;;;5094450;28;20052;-88
2022/09/18 04:22:03;;;;;;;5.65;1.45;;;;;;;;;;5093940;28;20051;-87
2022/09/18 04:24:30;;;;;;;6.90;1.77;;;;;;;;;;5094263;28;20139;-88
2022/09/18 04:26:57;;;;;;;4.10;1.27;;;;;;;;;;5076455;28;20048;-88
2022/09/18 04:29:25;;;;;;;6.85;1.38;;;;;;;;;;5076079;28;20173;-88
2022/09/18 04:31:52;;;;;;;6.07;3.97;;;;;;;;;;5076351;28;20044;-88
2022/09/18 04:34:19;;;;;;;9.55;4.70;;;;;;;;;;5093933;28;20131;-88
2022/09/18 04:36:47;;;;;;;10.45;3.10;;;;;;;;;;5076152;28;20071;-87
2022/09/18 04:39:14;;;;;;;5.80;2.72;;;;;;;;;;5093755;28;20053;-88
2022/09/18 04:41:44;;;;;;;3.72;1.73;;;;;;;;;;5076291;28;20407;-87
2022/09/18 04:44:11;;;;;;;6.32;2.20;;;;;;;;;;5075923;28;20500;-87
2022/09/18 04:46:38;;;;;;;3.80;2.88;;;;;;;;;;5076396;28;20410;-88
2022/09/18 04:49:05;;;;;;;6.45;3.95;;;;;;;;;;5080637;28;20053;-87
2022/09/18 04:51:32;;;;;;;9.32;2.45;;;;;;;;;;5076094;28;20135;-87
2022/09/18 04:54:00;;;;;;;8.10;3.55;;;;;;;;;;5075463;28;20479;-88
2022/09/18 04:56:27;;;;;;;9.43;4.40;;;;;;;;;;5076031;28;20070;-88
2022/09/18 04:58:54;;;;;;;12.45;3.42;;;;;;;;;;5075601;28;20049;-87
2022/09/18 05:01:21;;;;;;;12.48;2.78;;;;;;;;;;5075918;28;20518;-88
2022/09/18 05:03:48;;;;;;;8.98;2.80;;;;;;;;;;5075873;28;20051;-88
2022/09/18 05:06:15;;;;;;;9.80;4.40;;;;;;;;;;5075870;28;20491;-88
2022/09/18 05:08:42;;;;;;;4.25;2.00;;;;;;;;;;5076030;28;20056;-88
2022/09/18 05:11:09;;;;;;;7.28;1.98;;;;;;;;;;5075945;28;20048;-88
2022/09/18 05:13:39;;;;;;;5.15;2.67;;;;;;;;;;5093549;28;20048;-88
2022/09/18 05:16:06;;;;;;;3.55;1.77;;;;;;;;;;5075689;28;20048;-89
2022/09/18 05:18:34;;;;;;;6.82;1.80;;;;;;;;;;5093457;28;20117;-89
2022/09/18 05:21:01;;;;;;;4.57;1.30;;;;;;;;;;5075975;28;20048;-88
2022/09/18 05:23:28;;;;;;;5.80;1.88;;;;;;;;;;5093554;28;20507;-89
2022/09/18 05:25:55;;;;;;;5.55;1.92;;;;;;;;;;5075573;28;20459;-89
2022/09/18 05:28:23;;;;;;;9.38;4.28;;;;;;;;;;5076217;28;20044;-89
2022/09/18 05:30:50;;;;;;;12.93;3.30;;;;;;;;;;5075671;28;20055;-89
2022/09/18 05:33:17;;;;;;;5.43;1.88;;;;;;;;;;5075573;28;20131;-88
2022/09/18 05:35:44;;;;;;;3.95;1.33;;;;;;;;;;5075566;28;20475;-88
2022/09/18 05:38:11;;;;;;;6.45;1.67;;;;;;;;;;5075790;28;20059;-88
2022/09/18 05:40:38;;;;;;;4.85;1.65;;;;;;;;;;5075500;28;20048;-88
2022/09/18 05:43:06;;;;;;;4.43;1.60;;;;;;;;;;5075662;28;20052;-89
2022/09/18 05:45:33;;;;;;;6.13;2.28;;;;;;;;;;5075555;28;20544;-88
2022/09/18 05:48:02;;;;;;;5.68;1.92;;;;;;;;;;5093319;28;20073;-88
2022/09/18 05:50:30;;;;;;;7.47;2.03;;;;;;;;;;5075820;28;20131;-89
2022/09/18 05:53:01;;;;;;;7.25;2.95;;;;;;;;;;5075443;28;20467;-89
2022/09/18 05:55:28;;;;;;;15.05;3.40;;;;;;;;;;5075740;28;20399;-88
2022/09/18 05:57:59;;;;;;;3.42;2.53;;;;;;;;;;5075802;28;20436;-87
2022/09/18 06:00:26;;;;;;;4.20;2.80;;;;;;;;;;5075474;28;20058;-88
2022/09/18 06:02:55;;;;;;;12.07;3.40;;;;;;;;;;5075418;28;20047;-88
2022/09/18 06:05:22;;;;;;;6.47;2.08;;;;;;;;;;5075635;28;20052;-87
2022/09/18 06:07:50;;;;;;;10.40;1.50;;;;;;;;;;5078811;28;20480;-89
2022/09/18 06:10:22;;;;;;;1.75;0.80;;;;;;;;;;5079517;28;20052;-87
2022/09/18 06:12:49;;;;;;;5.93;1.52;;;;;;;;;;5079025;28;20048;-88
2022/09/18 06:15:16;;;;;;;6.93;1.50;;;;;;;;;;5096796;28;20051;-88
2022/09/18 06:17:50;;;;;;;7.55;1.88;;;;;;;;;;5078939;28;20048;-87
2022/09/18 06:20:18;;;;;;;4.75;1.13;;;;;;;;;;5096635;28;20048;-88
2022/09/18 06:22:46;;;;;;;6.65;0.80;;;;;;;;;;5078926;28;20079;-88
2022/09/18 06:25:15;;;;;;;3.67;0.73;;;;;;;;;;5096867;28;20130;-88
2022/09/18 06:27:42;;;;;;;4.85;1.00;;;;;;;;;;5096761;28;20055;-89
2022/09/18 06:30:10;;;;;;;4.68;0.98;;;;;;;;;;5079063;28;20052;-89
2022/09/18 06:32:37;;;;;;;4.75;1.17;;;;;;;;;;5078985;28;20470;-89
2022/09/18 06:35:04;;;;;;;2.72;1.30;;;;;;;;;;5078990;28;20048;-89
2022/09/18 06:37:31;;;;;;;8.60;1.70;;;;;;;;;;5097696;28;20052;-89
2022/09/18 06:39:58;;;;;;;4.65;1.00;;;;;;;;;;5078641;28;20112;-90
2022/09/18 06:42:26;;;;;;;3.72;1.65;;;;;;;;;;5078642;28;20056;-89
2022/09/18 06:44:54;;;;;;;4.65;1.83;;;;;;;;;;5078606;28;20487;-89
2022/09/18 06:47:21;;;;;;;6.03;3.33;;;;;;;;;;5078897;28;20040;-89
2022/09/18 06:49:48;;;;;;;5.63;1.88;;;;;;;;;;5096343;28;20044;-89
2022/09/18 06:52:15;;;;;;;3.60;1.17;;;;;;;;;;5078500;28;20063;-90
2022/09/18 06:54:42;;;;;;;4.60;3.55;;;;;;;;;;5078440;28;20418;-90
2022/09/18 06:57:10;;;;;;;5.90;4.82;;;;;;;;;;5078282;28;20048;-90
2022/09/18 06:59:37;;;;;;;9.55;6.60;;;;;;;;;;5078425;28;20051;-89
2022/09/18 07:02:05;;;;;;;14.27;9.38;;;;;;;;;;5078547;28;20075;-89
2022/09/18 07:04:34;;;;;;;11.48;9.38;;;;;;;;;;5078210;28;20083;-89
2022/09/18 07:07:01;;;;;;;8.82;3.92;;;;;;;;;;5095665;28;20127;-88
2022/09/18 07:09:28;;;;;;;5.03;3.25;;;;;;;;;;5095869;28;20051;-89
2022/09/18 07:11:56;;;;;;;4.72;2.00;;;;;;;;;;5095586;28;20048;-88
2022/09/18 07:14:23;;;;;;;5.05;1.60;;;;;;;;;;5095550;28;20480;-88
2022/09/18 07:16:50;;;;;;;5.88;1.48;;;;;;;;;;5095038;28;20059;-87
2022/09/18 07:19:18;;;;;;;7.47;1.33;;;;;;;;;;5095318;28;20051;-88
2022/09/18 07:21:45;;;;;;;4.95;2.00;;;;;;;;;;5095540;28;20052;-90
2022/09/18 07:24:12;;;;;;;4.25;1.58;;;;;;;;;;5076522;28;20052;-89
2022/09/18 07:26:39;;;;;;;4.35;1.40;;;;;;;;;;5077671;28;20491;-88
2022/09/18 07:29:06;;;;;;;6.07;2.92;;;;;;;;;;5077433;28;20048;-90
2022/09/18 07:31:36;;;;;;;4.60;1.40;;;;;;;;;;5077844;28;20048;-89
2022/09/18 07:34:03;;;;;;;3.50;1.65;;;;;;;;;;5077717;28;20131;-90
2022/09/18 07:36:31;;;;;;;3.53;1.60;;;;;;;;;;5077497;28;20055;-89
2022/09/18 07:38:58;;;;;;;2.65;1.42;;;;;;;;;;5095192;28;20048;-90
2022/09/18 07:41:25;;;;;;;26.38;18.77;;;;;;;;;;5077400;28;20052;-90
2022/09/18 07:43:53;;;;;;;24.80;16.48;;;;;;;;;;5095347;28;20055;-90
2022/09/18 07:46:20;;;;;;;20.10;13.43;;;;;;;;;;5094900;28;20044;-89
2022/09/18 07:48:47;;;;;;;10.68;8.75;;;;;;;;;;5077271;28;20476;-89
2022/09/18 07:51:14;;;;;;;5.65;2.03;;;;;;;;;;5077195;28;20056;-89
2022/09/18 07:53:41;;;;;;;4.90;1.65;;;;;;;;;;5077224;28;20510;-88
2022/09/18 07:56:09;;;;;;;3.30;1.00;;;;;;;;;;5094641;28;20040;-89
2022/09/18 07:58:37;;;;;;;1.15;1.00;;;;;;;;;;5076979;28;20059;-87
2022/09/18 08:01:04;;;;;;;4.25;1.33;;;;;;;;;;5076548;28;20055;-89
2022/09/18 08:03:32;;;;;;;5.22;1.40;;;;;;;;;;5094763;28;20048;-88
2022/09/18 08:06:03;;;;;;;3.42;1.02;;;;;;;;;;5094451;28;20044;-87
2022/09/18 08:08:30;;;;;;;3.35;1.20;;;;;;;;;;5076876;28;20051;-90
2022/09/18 08:10:57;;;;;;;4.05;1.13;;;;;;;;;;5076580;28;20059;-89
2022/09/18 08:13:25;;;;;;;2.67;0.95;;;;;;;;;;5076439;28;20051;-88
2022/09/18 08:15:52;;;;;;;7.47;1.23;;;;;;;;;;5076615;28;20052;-88
2022/09/18 08:18:21;;;;;;;3.67;1.00;;;;;;;;;;5076555;28;20051;-88
2022/09/18 08:20:48;;;;;;;2.83;0.82;;;;;;;;;;5076497;28;20044;-87
2022/09/18 08:23:15;;;;;;;5.72;1.35;;;;;;;;;;5076604;28;20071;-89
2022/09/18 08:25:42;;;;;;;3.20;1.20;;;;;;;;;;5094311;28;20048;-87
2022/09/18 08:28:09;;;;;;;2.95;0.98;;;;;;;;;;5075821;28;20051;-89
2022/09/18 08:30:37;;;;;;;1.95;1.55;;;;;;;;;;5093962;28;20048;-90
2022/09/18 08:33:05;;;;;;;3.97;1.20;;;;;;;;;;5076597;28;20044;-89
2022/09/18 08:35:33;;;;;;;4.35;2.35;;;;;;;;;;5076474;28;20051;-89
2022/09/18 08:38:00;;;;;;;2.90;1.13;;;;;;;;;;5076447;28;20044;-89
2022/09/18 08:40:48;;;;;;;4.72;1.50;;;;;;;;;;5075856;28;20048;-88
2022/09/18 08:43:15;;;;;;;2.42;1.13;;;;;;;;;;5062939;28;20048;-89
2022/09/18 08:45:55;;;;;;;1.98;0.90;;;;;;;;;;5094372;28;20051;-88
2022/09/18 08:48:27;;;;;;;2.50;0.85;;;;;;;;;;5076040;28;20047;-92
2022/09/18 08:51:03;;;;;;;2.75;1.08;;;;;;;;;;5093623;28;20079;-88
2022/09/18 08:53:37;;;;;;;3.33;0.85;;;;;;;;;;5076614;28;20147;-92
2022/09/18 08:56:06;;;;;;;5.40;1.35;;;;;;;;;;5093632;28;20055;-91
2022/09/18 08:58:36;;;;;;;2.15;0.80;;;;;;;;;;5093573;28;20415;-89
2022/09/18 09:01:07;;;;;;;5.18;1.35;;;;;;;;;;5075828;28;20052;-89
2022/09/18 09:03:43;;;;;;;2.15;1.08;;;;;;;;;;5093613;28;20044;-88
2022/09/18 09:06:18;;;;;;;4.05;0.82;;;;;;;;;;5093572;28;20126;-88
2022/09/18 09:09:00;;;;;;;2.30;0.93;;;;;;;;;;5075730;28;20499;-88
2022/09/18 09:11:49;;;;;;;3.67;0.95;;;;;;;;;;5076213;28;20048;-89
2022/09/18 09:14:22;;;;;;;3.20;1.10;;;;;;;;;;5093596;28;20054;-90
2022/09/18 09:17:28;;;;;;;4.57;0.80;;;;;;;;;;5093750;28;20052;-89
2022/09/18 09:20:02;;;;;;;2.88;1.00;;;;;;;;;;5075492;28;20410;-88
2022/09/18 09:22:36;;;;;;;1.35;0.52;;;;;;;;;;5093554;28;20438;-90
2022/09/18 09:25:21;;;;;;;2.70;0.90;;;;;;;;;;5093560;28;20044;-89
2022/09/18 09:27:53;;;;;;;2.28;0.90;;;;;;;;;;5093781;28;20052;-88
2022/09/18 09:30:21;;;;;;;2.17;0.90;;;;;;;;;;5075663;28;20082;-89
2022/09/18 09:32:51;;;;;;;3.50;0.90;;;;;;;;;;5075564;28;20048;-88
2022/09/18 09:35:18;;;;;;;4.65;0.95;;;;;;;;;;5093565;28;20044;-88
2022/09/18 09:37:46;;;;;;;4.07;1.00;;;;;;;;;;5093547;28;20048;-87
2022/09/18 09:40:32;;;;;;;2.92;0.73;;;;;;;;;;5094240;28;20060;-88
2022/09/18 09:43:16;;;;;;;3.75;0.80;;;;;;;;;;5079466;28;20055;-90
2022/09/18 09:45:45;;;;;;;1.85;1.30;;;;;;;;;;5079531;28;20055;-88
2022/09/18 09:48:22;;;;;;;2.40;0.80;;;;;;;;;;5079848;28;20452;-89
2022/09/18 09:50:52;;;;;;;3.03;0.88;;;;;;;;;;5097449;28;20051;-87
2022/09/18 09:53:23;;;;;;;3.88;0.93;;;;;;;;;;5079465;28;20048;-86
2022/09/18 09:56:09;;;;;;;3.03;0.90;;;;;;;;;;5079640;28;20048;-88
2022/09/18 09:58:44;;;;;;;2.05;0.85;;;;;;;;;;5079578;28;20052;-87
2022/09/18 10:01:21;;;;;;;2.83;1.00;;;;;;;;;;5079359;28;20195;-88
2022/09/18 10:03:51;;;;;;;1.92;0.85;;;;;;;;;;5097042;28;20040;-87
2022/09/18 10:06:18;;;;;;;1.85;0.70;;;;;;;;;;5097076;28;20051;-88
2022/09/18 10:08:51;;;;;;;1.73;0.77;;;;;;;;;;5096928;28;20499;-89
2022/09/18 10:11:19;;;;;;;0.90;0.80;;;;;;;;;;5079257;28;20059;-89
2022/09/18 10:13:52;;;;;;;2.75;1.00;;;;;;;;;;5096801;28;20475;-92
2022/09/18 10:16:24;;;;;;;1.20;0.50;;;;;;;;;;5078923;28;20052;-88
2022/09/18 10:18:51;;;;;;;2.25;0.90;;;;;;;;;;5096811;28;20044;-87
2022/09/18 10:21:22;;;;;;;1.05;0.60;;;;;;;;;;5079175;28;20400;-89
2022/09/18 10:23:59;;;;;;;1.90;0.75;;;;;;;;;;5079233;28;20056;-90
2022/09/18 10:26:33;;;;;;;7.20;0.70;;;;;;;;;;5079071;28;20123;-89
2022/09/18 10:29:00;;;;;;;1.42;0.70;;;;;;;;;;5079004;28;20063;-89
2022/09/18 10:31:48;;;;;;;1.45;0.30;;;;;;;;;;5078803;28;20510;-91
2022/09/18 10:34:31;;;;;;;3.47;0.77;;;;;;;;;;5078594;28;20048;-88
2022/09/18 10:36:59;;;;;;;1.75;0.63;;;;;;;;;;5078664;28;20075;-92
2022/09/18 10:39:30;;;;;;;0.85;0.40;;;;;;;;;;5078485;28;20130;-89
2022/09/18 10:42:06;;;;;;;1.15;0.40;;;;;;;;;;5079490;28;20105;-89
2022/09/18 10:44:39;;;;;;;0.40;0.28;;;;;;;;;;5078431;28;20053;-88
2022/09/18 10:47:11;;;;;;;1.80;0.40;;;;;;;;;;5078462;28;20496;-87
2022/09/18 10:49:48;;;;;;;0.60;0.40;;;;;;;;;;5078193;28;20047;-88
2022/09/18 10:52:27;;;;;;;0.38;0.38;;;;;;;;;;5077744;28;20048;-85
2022/09/18 10:55:02;;;;;;;0.98;0.45;;;;;;;;;;5078419;28;20052;-89
2022/09/18 10:57:35;;;;;;;0.73;0.40;;;;;;;;;;5096584;28;20052;-88
2022/09/18 11:00:23;;;;;;;0.65;0.35;;;;;;;;;;5078517;28;20062;-87
2022/09/18 11:02:54;;;;;;;0.70;0.70;;;;;;;;;;5065247;28;20043;-88
2022/09/18 11:05:22;;;;;;;3.35;0.80;;;;;;;;;;5096151;28;20059;-86
2022/09/18 11:07:54;;;;;;;0.20;0.20;;;;;;;;;;5078123;28;20083;-88
2022/09/18 11:10:23;;;;;;;0.85;0.50;;;;;;;;;;5096087;28;20127;-87
2022/09/18 11:12:51;;;;;;;0.60;0.30;;;;;;;;;;5077860;28;20079;-85
2022/09/18 11:15:24;;;;;;;1.90;0.38;;;;;;;;;;5078477;28;20048;-86
2022/09/18 11:17:52;;;;;;;0.82;0.30;;;;;;;;;;5095603;28;20420;-88
2022/09/18 11:20:23;;;;;;;0.65;0.30;;;;;;;;;;5077683;28;20079;-87
2022/09/18 11:22:51;;;;;;;0.47;0.30;;;;;;;;;;5077653;28;20135;-86
2022/09/18 11:25:23;;;;;;;0.85;0.50;;;;;;;;;;5095132;28;20059;-86
2022/09/18 11:27:50;;;;;;;1.00;0.45;;;;;;;;;;5077605;28;20052;-86
2022/09/18 11:30:25;;;;;;;0.30;0.30;;;;;;;;;;5077464;28;20048;-87
2022/09/18 11:33:01;;;;;;;0.98;0.40;;;;;;;;;;5077362;28;20055;-87
2022/09/18 11:35:29;;;;;;;0.73;0.22;;;;;;;;;;5077357;28;20040;-87
2022/09/18 11:38:06;;;;;;;0.52;0.50;;;;;;;;;;5077309;28;20111;-85
2022/09/18 11:40:44;;;;;;;0.32;0.32;;;;;;;;;;5077273;28;20044;-87
2022/09/18 11:43:15;;;;;;;0.57;0.30;;;;;;;;;;5094947;28;20048;-85
2022/09/18 11:45:44;;;;;;;0.45;0.45;;;;;;;;;;5094735;28;20087;-84
2022/09/18 11:48:19;;;;;;;0.20;0.20;;;;;;;;;;5076778;28;20407;-87
2022/09/18 11:50:46;;;;;;;0.45;0.43;;;;;;;;;;5094965;28;20054;-87
2022/09/18 11:53:22;;;;;;;1.02;0.40;;;;;;;;;;5094740;28;20055;-87
2022/09/18 11:56:06;;;;;;;0.38;0.30;;;;;;;;;;5094895;28;20054;-88
2022/09/18 11:58:36;;;;;;;2.63;0.65;;;;;;;;;;5076955;28;20048;-87
2022/09/18 12:01:17;;;;;;;2.10;0.40;;;;;;;;;;5076745;28;20040;-86
2022/09/18 12:04:03;;;;;;;1.20;0.50;;;;;;;;;;5075909;28;20048;-88
2022/09/18 12:06:34;;;;;;;1.60;0.40;;;;;;;;;;5077150;28;20059;-87
2022/09/18 12:09:01;;;;;;;0.40;0.40;;;;;;;;;;5094332;28;20048;-88
2022/09/18 12:11:28;;;;;;;0.75;0.35;;;;;;;;;;5076960;28;20106;-88
2022/09/18 12:14:14;;;;;;;0.65;0.60;;;;;;;;;;5094755;28;20051;-87
2022/09/18 12:16:45;;;;;;;0.40;0.40;;;;;;;;;;5076801;28;20071;-89
2022/09/18 12:19:20;;;;;;;0.60;0.60;;;;;;;;;;5094314;28;20050;-89
2022/09/18 12:21:50;;;;;;;0.93;0.30;;;;;;;;;;5076527;28;20056;-88
2022/09/18 12:24:17;;;;;;;1.08;0.20;;;;;;;;;;5076586;28;20058;-89
2022/09/18 12:27:05;;;;;;;0.47;0.30;;;;;;;;;;5094427;28;20454;-89
2022/09/18 12:29:51;;;;;;;0.60;0.60;;;;;;;;;;5076221;28;20052;-88
2022/09/18 12:32:29;;;;;;;1.67;0.45;;;;;;;;;;5094548;28;20051;-89
2022/09/18 12:35:01;;;;;;;0.93;0.40;;;;;;;;;;5094284;28;20052;-90
2022/09/18 12:37:32;;;;;;;0.50;0.50;;;;;;;;;;5076665;28;20134;-88
2022/09/18 12:40:18;;;;;;;1.00;0.70;;;;;;;;;;5076212;28;20055;-90
2022/09/18 12:42:56;;;;;;;0.65;0.63;;;;;;;;;;5094347;28;20052;-92
2022/09/18 12:45:34;;;;;;;0.45;0.43;;;;;;;;;;5076522;28;20051;-91
2022/09/18 12:48:10;;;;;;;0.77;0.50;;;;;;;;;;5076607;28;20485;-92
2022/09/18 12:50:45;;;;;;;1.20;0.32;;;;;;;;;;5077373;28;20044;-96
2022/09/18 12:53:21;;;;;;;0.50;0.50;;;;;;;;;;5077658;28;20051;-93
2022/09/18 12:55:58;;;;;;;0.20;0.20;;;;;;;;;;5076612;28;20048;-93
2022/09/18 12:58:37;;;;;;;0.38;0.38;;;;;;;;;;5095219;28;20399;-95
2022/09/18 13:01:11;;;;;;;0.40;0.40;;;;;;;;;;5076429;28;20058;-94
2022/09/18 13:03:40;;;;;;;0.98;0.50;;;;;;;;;;5079899;28;20107;-94
2022/09/18 13:06:07;;;;;;;0.28;0.28;;;;;;;;;;5081462;28;20040;-93
2022/09/18 13:08:44;;;;;;;3.75;0.30;;;;;;;;;;5076551;28;20055;-93
2022/09/18 13:11:30;;;;;;;0.75;0.50;;;;;;;;;;5093682;28;20472;-95
2022/09/18 13:13:59;;;;;;;0.82;0.50;;;;;;;;;;5094023;28;20107;-93
2022/09/18 13:16:48;;;;;;;1.95;0.70;;;;;;;;;;5076099;28;20443;-94
2022/09/18 13:19:27;;;;;;;0.30;0.30;;;;;;;;;;5076476;28;20052;-94
2022/09/18 13:21:56;;;;;;;0.50;0.40;;;;;;;;;;5093390;28;20048;-92
2022/09/18 13:24:26;;;;;;;0.20;0.20;;;;;;;;;;5075873;28;20399;-93
2022/09/18 13:26:53;;;;;;;0.20;0.17;;;;;;;;;;5093727;28;20055;-89
2022/09/18 13:29:39;;;;;;;1.95;0.35;;;;;;;;;;5093630;28;20059;-92
2022/09/18 13:32:06;;;;;;;0.20;0.10;;;;;;;;;;5076615;28;20563;-90
2022/09/18 13:34:36;;;;;;;0.77;0.40;;;;;;;;;;5093540;28;20507;-92
2022/09/18 13:37:05;;;;;;;0.40;0.40;;;;;;;;;;5093487;28;20056;-85
2022/09/18 13:39:32;;;;;;;0.20;0.20;;;;;;;;;;5075752;28;20052;-90
2022/09/18 13:42:49;;;;;;;0.20;0.20;;;;;;;;;;5078901;28;20044;-89
2022/09/18 13:45:16;;;;;;;0.20;0.20;;;;;;;;;;5060756;28;20079;-91
2022/09/18 13:48:12;;;;;;;0.20;0.20;;;;;;;;;;5093580;28;20407;-92
2022/09/18 13:50:57;;;;;;;0.20;0.20;;;;;;;;;;5058956;28;20055;-92
2022/09/18 13:53:40;;;;;;;0.60;0.28;;;;;;;;;;5075692;28;20051;-93
2022/09/18 13:56:09;;;;;;;4.38;0.73;;;;;;;;;;5093824;28;20048;-92
2022/09/18 13:58:38;;;;;;;0.47;0.22;;;;;;;;;;5076647;28;20044;-92
2022/09/18 14:01:09;;;;;;;0.40;0.40;;;;;;;;;;5075864;28;20055;-94
2022/09/18 14:03:37;;;;;;;0.40;0.40;;;;;;;;;;5075808;28;20056;-94
2022/09/18 14:06:23;;;;;;;0.50;0.50;;;;;;;;;;5093442;28;20411;-94
2022/09/18 14:08:50;;;;;;;0.70;0.70;;;;;;;;;;5075624;28;20052;-93
2022/09/18 14:11:23;;;;;;;0.98;0.45;;;;;;;;;;5076454;28;20558;-94
2022/09/18 14:13:54;;;;;;;0.20;0.20;;;;;;;;;;5075828;28;20152;-94
2022/09/18 14:16:22;;;;;;;1.20;0.20;;;;;;;;;;5093276;28;20044;-93
2022/09/18 14:18:53;;;;;;;0.77;0.40;;;;;;;;;;5075826;28;20080;-92
2022/09/18 14:21:20;;;;;;;0.32;0.32;;;;;;;;;;5075978;28;20127;-91
2022/09/18 14:23:48;;;;;;;1.23;0.47;;;;;;;;;;5093138;28;20074;-91
2022/09/18 14:26:28;;;;;;;0.63;0.50;;;;;;;;;;5093154;28;20054;-91
2022/09/18 14:29:13;;;;;;;0.80;0.70;;;;;;;;;;5096799;28;20052;-91
2022/09/18 14:31:40;;;;;;;0.50;0.50;;;;;;;;;;5096773;28;20040;-90
2022/09/18 14:34:17;;;;;;;1.10;0.65;;;;;;;;;;5096588;28;20051;-92
2022/09/18 14:36:48;;;;;;;1.23;0.50;;;;;;;;;;5096544;28;20079;-90
2022/09/18 14:39:22;;;;;;;4.28;2.63;;;;;;;;;;5078847;28;20048;-90
2022/09/18 14:41:50;;;;;;;2.33;2.15;;;;;;;;;;5078446;28;20059;-90
2022/09/18 14:44:19;;;;;;;1.90;1.60;;;;;;;;;;5078475;28;20055;-89
2022/09/18 14:46:56;;;;;;;3.33;3.10;;;;;;;;;;5096322;28;20048;-89
2022/09/18 14:49:30;;;;;;;4.63;4.22;;;;;;;;;;5078931;28;20046;-88
2022/09/18 14:51:57;;;;;;;;;;;;;;;;;;5096628;28;20055;-88
2022/09/18 14:54:30;;;;;;;1.90;1.80;;;;;;;;;;5096187;28;20287;-88
2022/09/18 14:57:01;;;;;;;1.40;1.30;;;;;;;;;;5078422;28;20051;-88
2022/09/18 14:59:28;;;;;;;1.08;1.00;;;;;;;;;;5078463;28;20104;-89
2022/09/18 15:02:10;;;;;;;1.67;1.13;;;;;;;;;;5077933;28;20054;-88
2022/09/18 15:04:41;;;;;;;1.75;1.30;;;;;;;;;;5078534;28;20048;-88
2022/09/18 15:07:15;;;;;;;1.42;0.80;;;;;;;;;;5095770;28;20105;-86